Time,TemperatureF,DewpointF,PressureIn,WindDirection,WindDirectionDegrees,WindSpeedMPH,WindSpeedGustMPH,Humidity,HourlyPrecipIn,Conditions,Clouds,dailyrainin,SoftwareType,DateUTC
2013-02-22 00:00:00,41.2,29.2,30.08,North,6,3.0,3.0,62,0.00,,---,0.00,VWS V14.01,2013-02-22 05:00:00,
2013-02-22 00:10:00,41.1,29.1,30.08,North,7,3.0,5.0,62,0.00,,---,0.00,VWS V14.01,2013-02-22 05:10:00,
2013-02-22 00:20:00,41.1,28.7,30.09,North,7,0.0,6.0,61,0.00,,---,0.00,VWS V14.01,2013-02-22 05:20:00,
2013-02-22 00:30:00,41.1,28.7,30.11,North,7,0.0,3.0,61,0.00,,---,0.00,VWS V14.01,2013-02-22 05:30:00,
2013-02-22 00:40:00,41.1,28.7,30.11,North,7,0.0,0.0,61,0.00,,---,0.00,VWS V14.01,2013-02-22 05:40:00,
2013-02-22 00:50:00,40.9,28.5,30.15,North,7,0.0,0.0,61,0.00,,---,0.00,VWS V14.01,2013-02-22 05:50:00,
2013-02-22 01:00:00,40.9,29.3,30.16,North,7,0.0,0.0,63,0.00,,---,0.00,VWS V14.01,2013-02-22 06:00:00,
2013-02-22 01:10:00,40.8,28.0,30.16,North,7,0.0,0.0,60,0.00,,---,0.00,VWS V14.01,2013-02-22 06:10:00,
2013-02-22 01:20:00,40.6,28.6,30.18,North,7,0.0,0.0,62,0.00,,---,0.00,VWS V14.01,2013-02-22 06:20:00,
2013-02-22 01:30:00,40.6,28.2,30.21,North,7,0.0,0.0,61,0.00,,---,0.00,VWS V14.01,2013-02-22 06:30:00,
2013-02-22 01:40:00,40.5,28.9,30.21,North,7,0.0,0.0,63,0.00,,---,0.00,VWS V14.01,2013-02-22 06:40:00,
2013-02-22 01:50:00,40.3,29.1,30.21,North,7,0.0,0.0,64,0.00,,---,0.00,VWS V14.01,2013-02-22 06:50:00,
2013-02-22 02:00:00,40.3,29.5,30.20,North,7,0.0,0.0,65,0.00,,---,0.00,VWS V14.01,2013-02-22 07:00:00,
2013-02-22 02:10:00,40.2,29.8,30.20,North,7,0.0,0.0,66,0.00,,---,0.00,VWS V14.01,2013-02-22 07:10:00,
2013-02-22 02:20:00,40.1,29.7,30.18,North,7,0.0,0.0,66,0.00,,---,0.00,VWS V14.01,2013-02-22 07:20:00,
2013-02-22 02:30:00,39.8,29.4,30.17,North,7,0.0,0.0,66,0.00,,---,0.00,VWS V14.01,2013-02-22 07:30:00,
2013-02-22 02:40:00,39.2,31.6,30.17,North,7,0.0,0.0,74,0.00,,---,0.00,VWS V14.01,2013-02-22 07:40:00,
2013-02-22 02:50:00,38.2,32.6,30.17,North,7,0.0,0.0,80,0.00,,---,0.00,VWS V14.01,2013-02-22 07:50:00,
2013-02-22 03:00:00,37.5,33.7,30.17,North,7,0.0,0.0,86,0.01,,---,0.01,VWS V14.01,2013-02-22 08:00:00,
2013-02-22 03:09:00,36.9,34.2,30.17,North,7,0.0,0.0,90,0.01,,---,0.01,VWS V14.01,2013-02-22 08:09:00,
2013-02-22 03:10:00,36.9,34.2,30.17,North,7,0.0,0.0,90,0.01,,---,0.01,VWS V14.01,2013-02-22 08:10:00,
2013-02-22 03:20:00,36.5,34.9,30.18,North,7,0.0,0.0,94,0.02,,---,0.02,VWS V14.01,2013-02-22 08:20:00,
2013-02-22 03:30:00,35.9,35.9,30.18,North,7,0.0,0.0,100,0.03,,---,0.03,VWS V14.01,2013-02-22 08:30:00,
2013-02-22 03:40:00,35.5,35.5,30.18,North,7,0.0,0.0,100,0.04,,---,0.04,VWS V14.01,2013-02-22 08:40:00,
2013-02-22 03:50:00,35.3,35.3,30.19,North,7,0.0,0.0,100,0.05,,---,0.05,VWS V14.01,2013-02-22 08:50:00,
2013-02-22 04:00:00,35.0,35.0,30.18,North,7,0.0,0.0,100,0.06,,---,0.06,VWS V14.01,2013-02-22 09:00:00,
2013-02-22 04:10:00,34.9,34.9,30.18,North,7,0.0,0.0,100,0.06,,---,0.07,VWS V14.01,2013-02-22 09:10:00,
2013-02-22 04:20:00,34.7,34.7,30.18,North,7,0.0,0.0,100,0.07,,---,0.08,VWS V14.01,2013-02-22 09:20:00,
2013-02-22 04:30:00,34.4,34.4,30.18,North,7,0.0,0.0,100,0.07,,---,0.09,VWS V14.01,2013-02-22 09:30:00,
2013-02-22 04:40:00,34.3,34.3,30.18,North,7,0.0,0.0,100,0.07,,---,0.10,VWS V14.01,2013-02-22 09:40:00,
2013-02-22 04:50:00,33.8,33.8,30.16,North,7,0.0,0.0,100,0.07,,---,0.11,VWS V14.01,2013-02-22 09:50:00,
2013-02-22 05:00:00,33.7,33.7,30.15,North,7,0.0,0.0,100,0.06,,---,0.11,VWS V14.01,2013-02-22 10:00:00,
2013-02-22 05:10:00,33.4,33.4,30.15,North,7,0.0,3.0,100,0.06,,---,0.12,VWS V14.01,2013-02-22 10:10:00,
2013-02-22 05:20:00,32.9,32.9,30.14,North,359,0.0,3.0,100,0.06,,---,0.13,VWS V14.01,2013-02-22 10:20:00,
2013-02-22 05:30:00,32.7,32.7,30.13,North,0,0.0,3.0,100,0.05,,---,0.13,VWS V14.01,2013-02-22 10:30:00,
2013-02-22 05:40:00,32.2,32.2,30.13,North,0,0.0,4.0,100,0.05,,---,0.14,VWS V14.01,2013-02-22 10:40:00,
2013-02-22 05:50:00,32.1,32.1,30.12,North,0,0.0,0.0,100,0.05,,---,0.15,VWS V14.01,2013-02-22 10:50:00,
2013-02-22 06:00:00,31.9,31.9,30.11,NNE,20,0.0,3.0,100,0.04,,---,0.15,VWS V14.01,2013-02-22 11:00:00,
2013-02-22 06:10:00,31.8,31.8,30.11,NE,34,0.0,2.0,100,0.04,,---,0.15,VWS V14.01,2013-02-22 11:10:00,
2013-02-22 06:20:00,31.8,31.8,30.11,ENE,78,0.0,1.0,100,0.03,,---,0.15,VWS V14.01,2013-02-22 11:20:00,
2013-02-22 06:30:00,31.8,31.8,30.10,ENE,72,0.0,1.0,100,0.02,,---,0.15,VWS V14.01,2013-02-22 11:30:00,
2013-02-22 06:40:00,31.8,31.8,30.10,ENE,73,0.0,0.0,100,0.02,,---,0.15,VWS V14.01,2013-02-22 11:40:00,
2013-02-22 06:50:00,31.8,31.8,30.17,ENE,73,0.0,0.0,100,0.01,,---,0.15,VWS V14.01,2013-02-22 11:50:00,
2013-02-22 07:00:00,31.8,31.8,30.17,ENE,73,0.0,0.0,100,0.00,,---,0.15,VWS V14.01,2013-02-22 12:00:00,
2013-02-22 07:10:00,31.9,31.9,30.17,ENE,73,0.0,0.0,100,0.00,,---,0.15,VWS V14.01,2013-02-22 12:10:00,
2013-02-22 07:20:00,31.9,31.9,30.15,ENE,73,0.0,0.0,100,0.00,,---,0.15,VWS V14.01,2013-02-22 12:20:00,
2013-02-22 07:30:00,31.8,31.8,30.16,ENE,73,0.0,0.0,100,0.00,,---,0.15,VWS V14.01,2013-02-22 12:30:00,
2013-02-22 07:40:00,31.9,31.9,30.16,ENE,73,0.0,0.0,100,0.00,,---,0.15,VWS V14.01,2013-02-22 12:40:00,
2013-02-22 07:50:00,31.9,31.9,30.18,ENE,73,0.0,0.0,100,0.00,,---,0.15,VWS V14.01,2013-02-22 12:50:00,
2013-02-22 08:00:00,32.1,32.1,30.19,ENE,73,0.0,0.0,100,0.00,,---,0.15,VWS V14.01,2013-02-22 13:00:00,
2013-02-22 08:10:00,32.2,32.2,30.19,ENE,73,0.0,0.0,100,0.00,,---,0.15,VWS V14.01,2013-02-22 13:10:00,
2013-02-22 08:20:00,32.2,32.2,30.20,ENE,73,0.0,0.0,100,0.00,,---,0.15,VWS V14.01,2013-02-22 13:20:00,
2013-02-22 08:30:00,32.4,32.4,30.18,ENE,73,0.0,0.0,100,0.00,,---,0.15,VWS V14.01,2013-02-22 13:30:00,
2013-02-22 08:40:00,32.7,32.7,30.18,ENE,73,0.0,0.0,100,0.01,,---,0.16,VWS V14.01,2013-02-22 13:40:00,
2013-02-22 08:49:00,32.7,32.7,30.19,ENE,73,0.0,0.0,100,0.01,,---,0.16,VWS V14.01,2013-02-22 13:49:00,
2013-02-22 08:50:00,32.7,32.7,30.19,ENE,73,0.0,0.0,100,0.01,,---,0.16,VWS V14.01,2013-02-22 13:50:00,
2013-02-22 09:00:00,32.7,32.7,30.19,ENE,73,0.0,0.0,100,0.01,,---,0.16,VWS V14.01,2013-02-22 14:00:00,
2013-02-22 09:10:00,32.9,32.9,30.19,ENE,73,0.0,0.0,100,0.01,,---,0.16,VWS V14.01,2013-02-22 14:10:00,
2013-02-22 09:20:00,32.9,32.9,30.20,ENE,73,0.0,0.0,100,0.01,,---,0.16,VWS V14.01,2013-02-22 14:20:00,
2013-02-22 09:30:00,32.9,32.9,30.19,ENE,73,0.0,0.0,100,0.01,,---,0.16,VWS V14.01,2013-02-22 14:30:00,
2013-02-22 09:40:00,33.2,33.2,30.19,ENE,73,0.0,0.0,100,0.01,,---,0.16,VWS V14.01,2013-02-22 14:40:00,
2013-02-22 09:50:00,33.5,33.5,30.17,ENE,73,0.0,0.0,100,0.00,,---,0.16,VWS V14.01,2013-02-22 14:50:00,
2013-02-22 10:00:00,33.7,33.7,30.16,ENE,73,0.0,0.0,100,0.00,,---,0.16,VWS V14.01,2013-02-22 15:00:00,
2013-02-22 10:09:00,33.7,33.7,30.16,ENE,73,0.0,0.0,100,0.00,,---,0.16,VWS V14.01,2013-02-22 15:09:00,
2013-02-22 10:10:00,33.7,33.7,30.16,ENE,73,0.0,0.0,100,0.00,,---,0.16,VWS V14.01,2013-02-22 15:10:00,
2013-02-22 10:20:00,33.5,33.5,30.16,ENE,69,0.0,0.0,100,0.00,,---,0.16,VWS V14.01,2013-02-22 15:20:00,
2013-02-22 10:30:00,33.8,33.8,30.17,ENE,58,0.0,0.0,100,0.00,,---,0.16,VWS V14.01,2013-02-22 15:30:00,
2013-02-22 10:40:00,34.0,34.0,30.17,NE,51,0.0,2.0,100,0.00,,---,0.16,VWS V14.01,2013-02-22 15:40:00,
2013-02-22 10:50:00,34.3,34.3,30.15,NNE,16,0.0,5.0,100,0.00,,---,0.16,VWS V14.01,2013-02-22 15:50:00,
2013-02-22 11:00:00,34.6,34.6,30.16,East,86,0.0,3.0,100,0.00,,---,0.16,VWS V14.01,2013-02-22 16:00:00,
2013-02-22 11:10:00,34.9,34.9,30.16,NNE,23,0.0,5.0,100,0.00,,---,0.16,VWS V14.01,2013-02-22 16:10:00,
2013-02-22 11:19:00,34.9,34.9,30.17,ENE,73,0.0,2.0,100,0.00,,---,0.16,VWS V14.01,2013-02-22 16:19:00,
2013-02-22 11:20:00,34.9,34.9,30.17,ENE,73,0.0,2.0,100,0.00,,---,0.16,VWS V14.01,2013-02-22 16:20:00,
2013-02-22 11:30:00,35.5,35.5,30.17,NE,52,0.0,2.0,100,0.00,,---,0.16,VWS V14.01,2013-02-22 16:30:00,
2013-02-22 11:40:00,35.6,35.6,30.17,NE,52,0.0,0.0,100,0.00,,---,0.16,VWS V14.01,2013-02-22 16:40:00,
2013-02-22 11:50:00,36.0,35.8,30.16,NNE,21,1.0,1.0,99,0.00,,---,0.16,VWS V14.01,2013-02-22 16:50:00,
2013-02-22 12:00:00,36.0,35.5,30.16,NNE,18,0.0,2.0,98,0.00,,---,0.16,VWS V14.01,2013-02-22 17:00:00,
2013-02-22 12:10:00,36.8,36.3,30.16,NNE,18,0.0,0.0,98,0.00,,---,0.16,VWS V14.01,2013-02-22 17:10:00,
2013-02-22 12:20:00,36.5,36.0,30.15,NE,49,0.0,0.0,98,0.00,,---,0.16,VWS V14.01,2013-02-22 17:20:00,
2013-02-22 12:30:00,36.5,35.7,30.15,NE,44,0.0,0.0,97,0.00,,---,0.16,VWS V14.01,2013-02-22 17:30:00,
2013-02-22 12:40:00,36.5,35.7,30.15,ESE,112,0.0,0.0,97,0.00,,---,0.16,VWS V14.01,2013-02-22 17:40:00,
2013-02-22 12:50:00,36.6,35.8,30.15,ESE,112,0.0,0.0,97,0.00,,---,0.16,VWS V14.01,2013-02-22 17:50:00,
2013-02-22 13:00:00,36.6,35.6,30.14,NE,48,0.0,0.0,96,0.00,,---,0.16,VWS V14.01,2013-02-22 18:00:00,
2013-02-22 13:10:00,36.8,35.8,30.14,NE,42,0.0,0.0,96,0.00,,---,0.16,VWS V14.01,2013-02-22 18:10:00,
2013-02-22 13:19:00,37.0,36.2,30.13,NE,42,0.0,0.0,97,0.00,,---,0.16,VWS V14.01,2013-02-22 18:19:00,
2013-02-22 13:20:00,37.0,36.2,30.13,NE,42,0.0,0.0,97,0.00,,---,0.16,VWS V14.01,2013-02-22 18:20:00,
2013-02-22 13:30:00,37.3,37.0,30.11,NE,42,0.0,0.0,99,0.00,,---,0.16,VWS V14.01,2013-02-22 18:30:00,
2013-02-22 13:40:00,37.3,36.8,30.11,NE,42,0.0,0.0,98,0.00,,---,0.16,VWS V14.01,2013-02-22 18:40:00,
2013-02-22 13:49:00,37.2,36.4,30.10,NNW,347,0.0,2.0,97,0.00,,---,0.16,VWS V14.01,2013-02-22 18:49:00,
2013-02-22 13:50:00,37.2,36.4,30.10,NNW,347,0.0,2.0,97,0.00,,---,0.16,VWS V14.01,2013-02-22 18:50:00,
2013-02-22 14:00:00,37.2,36.7,30.09,North,356,0.0,0.0,98,0.00,,---,0.16,VWS V14.01,2013-02-22 19:00:00,
2013-02-22 14:09:00,37.5,36.7,30.09,North,356,0.0,0.0,97,0.00,,---,0.16,VWS V14.01,2013-02-22 19:09:00,
2013-02-22 14:10:00,37.5,36.7,30.09,North,356,0.0,0.0,97,0.00,,---,0.16,VWS V14.01,2013-02-22 19:10:00,
2013-02-22 14:20:00,37.6,36.8,30.09,North,356,0.0,0.0,97,0.00,,---,0.16,VWS V14.01,2013-02-22 19:20:00,
2013-02-22 14:30:00,37.6,36.6,30.09,North,356,0.0,0.0,96,0.00,,---,0.16,VWS V14.01,2013-02-22 19:30:00,
2013-02-22 14:40:00,37.5,36.5,30.09,ENE,61,0.0,3.0,96,0.00,,---,0.16,VWS V14.01,2013-02-22 19:40:00,
2013-02-22 14:50:00,37.6,36.8,30.09,ENE,62,0.0,0.0,97,0.00,,---,0.16,VWS V14.01,2013-02-22 19:50:00,
2013-02-22 15:00:00,37.6,36.8,30.08,NE,41,0.0,1.0,97,0.00,,---,0.16,VWS V14.01,2013-02-22 20:00:00,
2013-02-22 15:10:00,37.3,37.0,30.08,NE,41,0.0,0.0,99,0.00,,---,0.16,VWS V14.01,2013-02-22 20:10:00,
2013-02-22 15:20:00,37.2,37.2,30.08,North,0,0.0,2.0,100,0.00,,---,0.16,VWS V14.01,2013-02-22 20:20:00,
2013-02-22 15:30:00,37.0,37.0,30.08,North,0,0.0,0.0,100,0.00,,---,0.16,VWS V14.01,2013-02-22 20:30:00,
2013-02-22 15:40:00,37.2,37.2,30.08,North,0,0.0,0.0,100,0.00,,---,0.16,VWS V14.01,2013-02-22 20:40:00,
2013-02-22 15:50:00,37.0,37.0,30.08,NNW,335,0.0,0.0,100,0.00,,---,0.16,VWS V14.01,2013-02-22 20:50:00,
2013-02-22 16:00:00,37.0,37.0,30.08,NNW,332,0.0,0.0,100,0.00,,---,0.16,VWS V14.01,2013-02-22 21:00:00,
2013-02-22 16:10:00,37.0,37.0,30.08,NNW,332,0.0,0.0,100,0.00,,---,0.16,VWS V14.01,2013-02-22 21:10:00,
2013-02-22 16:20:00,37.2,37.2,30.08,NNW,332,0.0,0.0,100,0.01,,---,0.17,VWS V14.01,2013-02-22 21:20:00,
2013-02-22 16:30:00,37.0,37.0,30.08,NNW,332,0.0,0.0,100,0.04,,---,0.20,VWS V14.01,2013-02-22 21:30:00,
2013-02-22 16:40:00,36.8,36.8,30.08,NNW,332,0.0,0.0,100,0.05,,---,0.21,VWS V14.01,2013-02-22 21:40:00,
2013-02-22 16:50:00,36.6,36.6,30.09,NNW,332,0.0,0.0,100,0.05,,---,0.21,VWS V14.01,2013-02-22 21:50:00,
2013-02-22 17:00:00,36.6,36.6,30.09,NNW,332,0.0,0.0,100,0.05,,---,0.21,VWS V14.01,2013-02-22 22:00:00,
2013-02-22 17:10:00,36.5,36.5,30.09,NNW,332,0.0,0.0,100,0.05,,---,0.21,VWS V14.01,2013-02-22 22:10:00,
2013-02-22 17:20:00,36.3,36.3,30.07,NNW,332,0.0,0.0,100,0.05,,---,0.21,VWS V14.01,2013-02-22 22:20:00,
2013-02-22 17:30:00,36.3,36.3,30.07,NNW,332,0.0,0.0,100,0.05,,---,0.22,VWS V14.01,2013-02-22 22:30:00,
2013-02-22 17:40:00,36.2,36.2,30.07,NNW,332,0.0,0.0,100,0.02,,---,0.22,VWS V14.01,2013-02-22 22:40:00,
2013-02-22 17:50:00,36.2,36.2,30.07,NNW,332,0.0,0.0,100,0.01,,---,0.22,VWS V14.01,2013-02-22 22:50:00,
2013-02-22 18:00:00,36.0,36.0,30.08,NNW,332,0.0,0.0,100,0.01,,---,0.22,VWS V14.01,2013-02-22 23:00:00,
2013-02-22 18:10:00,36.0,36.0,30.08,NNW,332,0.0,0.0,100,0.01,,---,0.22,VWS V14.01,2013-02-22 23:10:00,
2013-02-22 18:20:00,36.0,36.0,30.08,NNW,332,0.0,0.0,100,0.02,,---,0.23,VWS V14.01,2013-02-22 23:20:00,
2013-02-22 18:30:00,36.0,36.0,30.07,NNW,332,0.0,0.0,100,0.02,,---,0.23,VWS V14.01,2013-02-22 23:30:00,
2013-02-22 18:40:00,35.9,35.9,30.07,NNW,332,0.0,0.0,100,0.01,,---,0.23,VWS V14.01,2013-02-22 23:40:00,
2013-02-22 18:50:00,36.0,36.0,30.06,NNW,332,0.0,0.0,100,0.01,,---,0.23,VWS V14.01,2013-02-22 23:50:00,
2013-02-22 19:00:00,36.0,36.0,30.06,NNW,332,0.0,0.0,100,0.01,,---,0.23,VWS V14.01,2013-02-23 00:00:00,
2013-02-22 19:10:00,36.0,36.0,30.06,NNW,332,0.0,0.0,100,0.01,,---,0.23,VWS V14.01,2013-02-23 00:10:00,
2013-02-22 19:20:00,36.2,36.2,30.06,NNW,332,0.0,0.0,100,0.01,,---,0.23,VWS V14.01,2013-02-23 00:20:00,
2013-02-22 19:29:00,36.2,36.2,30.04,NNW,332,0.0,0.0,100,0.00,,---,0.23,VWS V14.01,2013-02-23 00:29:00,
2013-02-22 19:30:00,36.2,36.2,30.04,NNW,332,0.0,0.0,100,0.00,,---,0.23,VWS V14.01,2013-02-23 00:30:00,
2013-02-22 19:40:00,36.2,36.2,30.04,NNW,332,0.0,0.0,100,0.00,,---,0.23,VWS V14.01,2013-02-23 00:40:00,
2013-02-22 19:50:00,36.2,36.2,30.05,NNW,332,0.0,0.0,100,0.00,,---,0.23,VWS V14.01,2013-02-23 00:50:00,
2013-02-22 20:00:00,36.2,36.2,30.06,NNW,332,0.0,0.0,100,0.00,,---,0.23,VWS V14.01,2013-02-23 01:00:00,
2013-02-22 20:10:00,36.2,36.2,30.06,NNW,332,0.0,0.0,100,0.00,,---,0.23,VWS V14.01,2013-02-23 01:10:00,
2013-02-22 20:20:00,36.2,36.2,30.05,NNW,332,0.0,0.0,100,0.00,,---,0.23,VWS V14.01,2013-02-23 01:20:00,
2013-02-22 20:30:00,36.2,36.2,30.07,NW,323,0.0,2.0,100,0.00,,---,0.23,VWS V14.01,2013-02-23 01:30:00,
2013-02-22 20:40:00,36.2,36.2,30.07,NW,323,0.0,3.0,100,0.00,,---,0.23,VWS V14.01,2013-02-23 01:40:00,
2013-02-22 20:50:00,36.3,36.3,30.06,NW,323,0.0,0.0,100,0.01,,---,0.24,VWS V14.01,2013-02-23 01:50:00,
2013-02-22 21:00:00,36.2,36.2,30.06,NW,323,0.0,0.0,100,0.01,,---,0.24,VWS V14.01,2013-02-23 02:00:00,
2013-02-22 21:10:00,36.2,36.2,30.06,NW,323,0.0,0.0,100,0.01,,---,0.24,VWS V14.01,2013-02-23 02:10:00,
2013-02-22 21:19:00,36.2,36.2,30.05,NW,323,0.0,2.0,100,0.02,,---,0.25,VWS V14.01,2013-02-23 02:19:00,
2013-02-22 21:20:00,36.2,36.2,30.05,NW,323,0.0,2.0,100,0.02,,---,0.25,VWS V14.01,2013-02-23 02:20:00,
2013-02-22 21:30:00,36.2,36.2,30.05,NW,323,0.0,0.0,100,0.02,,---,0.25,VWS V14.01,2013-02-23 02:30:00,
2013-02-22 21:40:00,36.2,36.2,30.05,NW,323,0.0,0.0,100,0.02,,---,0.25,VWS V14.01,2013-02-23 02:40:00,
2013-02-22 21:49:00,36.2,36.2,30.04,NW,323,0.0,0.0,100,0.02,,---,0.25,VWS V14.01,2013-02-23 02:49:00,
2013-02-22 21:50:00,36.2,36.2,30.04,NW,323,0.0,0.0,100,0.02,,---,0.25,VWS V14.01,2013-02-23 02:50:00,
2013-02-22 22:00:00,36.2,36.2,30.05,NW,323,0.0,0.0,100,0.01,,---,0.25,VWS V14.01,2013-02-23 03:00:00,
2013-02-22 22:10:00,36.0,36.0,30.05,NW,323,0.0,3.0,100,0.01,,---,0.25,VWS V14.01,2013-02-23 03:10:00,
2013-02-22 22:20:00,36.0,36.0,30.04,NW,323,0.0,0.0,100,0.02,,---,0.26,VWS V14.01,2013-02-23 03:20:00,
2013-02-22 22:30:00,36.0,36.0,30.04,NW,323,3.0,3.0,100,0.01,,---,0.26,VWS V14.01,2013-02-23 03:30:00,
2013-02-22 22:40:00,36.0,36.0,30.04,NW,323,0.0,3.0,100,0.01,,---,0.26,VWS V14.01,2013-02-23 03:40:00,
2013-02-22 22:50:00,35.9,35.9,30.05,WNW,301,0.0,6.0,100,0.01,,---,0.26,VWS V14.01,2013-02-23 03:50:00,
2013-02-22 23:00:00,35.9,35.9,30.04,NW,306,0.0,2.0,100,0.02,,---,0.27,VWS V14.01,2013-02-23 04:00:00,
2013-02-22 23:10:00,35.9,35.9,30.04,NW,308,2.0,3.0,100,0.02,,---,0.27,VWS V14.01,2013-02-23 04:10:00,
2013-02-22 23:20:00,35.8,35.8,30.03,NW,322,2.0,6.0,100,0.02,,---,0.27,VWS V14.01,2013-02-23 04:20:00,
2013-02-22 23:30:00,35.8,35.8,30.02,NW,322,0.0,3.0,100,0.01,,---,0.27,VWS V14.01,2013-02-23 04:30:00,
2013-02-22 23:39:00,35.8,35.8,30.02,NW,322,0.0,0.0,100,0.01,,---,0.27,VWS V14.01,2013-02-23 04:39:00,
2013-02-22 23:40:00,35.8,35.8,30.02,NW,322,0.0,0.0,100,0.01,,---,0.27,VWS V14.01,2013-02-23 04:40:00,
2013-02-22 23:50:00,35.8,35.8,30.01,NW,322,0.0,0.0,100,0.02,,---,0.28,VWS V14.01,2013-02-23 04:50:00,